Huvudsida
METAR-TAF:

METAR-TAF

Flygplatser :

Båtsfjords flygplats

Båtsfjords, Norge

latitud: 70-38N, longitud: 029-44E, höjd: 10 m

Aktuellt väderrapport

Denna rapport gjordes för 1 timme och 56 minuter sedan, klockan 21:50 UTC
Vind 24 kt från syd/sydväst
Temperatur -2°C
Fuktighet 86%
Tryck 1026 hPa
Sikt 10 km eller mer
Spridda moln på en höjd av 1100 ft
Brutna moln på en höjd av 1600 ft

METAR: ENBS 182150Z 21024KT 9999 SCT011 BKN016 M02/M04 Q1026

Tid: 00:46 (23:46 UTC)


TAF: saknas

Aktuella väderrapporter och prognoser från 4000 flygplatser (METAR- och TAF-rapporter).

De tillgängliga stationerna syns som gula och röda prickar på kartan.

För musen över prickarna för att se namnen på stationerna.

Klicka sedan för att få väderrapporter och prognoser.

För att ändra kartan: Klicka på de gröna knapparna med ett svart kors på för att zooma in; den gröna knappen med ett streck på för att zooma ut; eller på de gröna pilarna för angränsande kartor.


METAR-TAF: